createdAt,value
2018-06-20T00:01:06.101Z,0
2018-06-20T00:02:14.180Z,0
2018-06-20T00:03:22.254Z,0
2018-06-20T00:04:30.300Z,0
2018-06-20T00:05:38.386Z,0
2018-06-20T00:06:46.422Z,0
2018-06-20T00:07:54.511Z,0
2018-06-20T00:09:02.594Z,0
2018-06-20T00:10:10.648Z,0
2018-06-20T00:11:18.713Z,0
2018-06-20T00:12:26.758Z,0
2018-06-20T00:13:34.851Z,0
2018-06-20T00:14:42.922Z,0
2018-06-20T00:15:50.989Z,0
2018-06-20T00:16:59.061Z,0
2018-06-20T00:18:07.111Z,0
2018-06-20T00:19:15.165Z,0
2018-06-20T00:20:23.257Z,0
2018-06-20T00:21:31.298Z,0
2018-06-20T00:22:39.380Z,0
2018-06-20T00:23:47.450Z,0
2018-06-20T00:24:55.515Z,0
2018-06-20T00:26:03.571Z,0
2018-06-20T00:27:11.622Z,0
2018-06-20T00:28:19.713Z,0
2018-06-20T00:29:27.776Z,0
2018-06-20T00:30:35.848Z,0
2018-06-20T00:31:43.920Z,0
2018-06-20T00:32:51.968Z,0
2018-06-20T00:34:00.031Z,0
2018-06-20T00:35:08.129Z,0
2018-06-20T00:36:16.143Z,0
2018-06-20T00:37:24.276Z,0
2018-06-20T00:38:32.301Z,0
2018-06-20T00:39:40.352Z,0
2018-06-20T00:40:48.437Z,0
2018-06-20T00:41:56.470Z,0
2018-06-20T00:43:04.555Z,0
2018-06-20T00:44:12.640Z,0
2018-06-20T00:45:20.694Z,0
2018-06-20T00:46:28.763Z,0
2018-06-20T00:47:36.801Z,0
2018-06-20T00:48:44.894Z,0
2018-06-20T00:49:52.966Z,0
2018-06-20T00:51:01.024Z,0
2018-06-20T00:52:09.098Z,0
2018-06-20T00:53:17.143Z,0
2018-06-20T00:54:25.226Z,0
2018-06-20T00:55:33.315Z,0
2018-06-20T00:56:41.349Z,0
2018-06-20T00:57:49.424Z,0
2018-06-20T00:58:57.473Z,0
2018-06-20T01:00:05.550Z,0
2018-06-20T01:01:13.605Z,0
2018-06-20T01:02:21.670Z,0
2018-06-20T01:03:29.740Z,0
2018-06-20T01:04:37.813Z,0
2018-06-20T01:05:45.891Z,0
2018-06-20T01:06:53.955Z,0
2018-06-20T01:08:02.031Z,0
2018-06-20T01:09:10.070Z,0
2018-06-20T01:10:18.176Z,0
2018-06-20T01:11:26.187Z,0
2018-06-20T01:12:34.273Z,0
2018-06-20T01:13:42.349Z,0
2018-06-20T01:14:50.431Z,0
2018-06-20T01:15:58.483Z,0
2018-06-20T01:17:06.513Z,0
2018-06-20T01:18:14.608Z,0
2018-06-20T01:19:22.680Z,0
2018-06-20T01:20:30.738Z,0
2018-06-20T01:21:38.791Z,0
2018-06-20T01:22:46.835Z,0
2018-06-20T01:23:54.939Z,0
2018-06-20T01:25:02.997Z,0
2018-06-20T01:26:11.064Z,0
2018-06-20T01:27:19.116Z,0
2018-06-20T01:28:27.222Z,0
2018-06-20T01:29:35.266Z,0
2018-06-20T01:30:43.329Z,0
2018-06-20T01:31:51.394Z,0
2018-06-20T01:32:59.454Z,0
2018-06-20T01:34:07.535Z,0
2018-06-20T01:35:15.594Z,0
2018-06-20T01:36:23.662Z,0
2018-06-20T01:37:31.727Z,0
2018-06-20T01:38:39.799Z,0
2018-06-20T01:39:47.873Z,0
2018-06-20T01:40:55.924Z,0
2018-06-20T01:42:03.991Z,0
2018-06-20T01:43:12.066Z,0
2018-06-20T01:44:20.141Z,0
2018-06-20T01:45:28.202Z,0
2018-06-20T01:46:36.232Z,0
2018-06-20T01:47:44.330Z,0
2018-06-20T01:48:52.394Z,0
2018-06-20T01:50:00.464Z,0
2018-06-20T01:51:08.533Z,0
2018-06-20T01:52:16.563Z,0
2018-06-20T01:53:24.656Z,0
2018-06-20T01:54:32.725Z,0
2018-06-20T01:55:40.846Z,0
2018-06-20T01:56:48.865Z,0
2018-06-20T01:57:56.910Z,0
2018-06-20T01:59:04.999Z,0
2018-06-20T02:00:13.054Z,0
2018-06-20T02:01:21.146Z,0
2018-06-20T02:02:29.196Z,0
2018-06-20T02:03:37.264Z,0
2018-06-20T02:04:45.324Z,0
2018-06-20T02:05:53.389Z,0
2018-06-20T02:07:01.458Z,0
2018-06-20T02:08:09.522Z,0
2018-06-20T02:09:17.589Z,0
2018-06-20T02:10:25.659Z,0
2018-06-20T02:11:33.717Z,0
2018-06-20T02:12:41.786Z,0
2018-06-20T02:13:49.849Z,0
2018-06-20T02:14:57.927Z,0
2018-06-20T02:16:05.967Z,0
2018-06-20T02:17:14.051Z,0
2018-06-20T02:18:22.115Z,0
2018-06-20T02:19:30.191Z,0
2018-06-20T02:20:38.250Z,0
2018-06-20T02:21:46.286Z,0
2018-06-20T02:22:54.394Z,0
2018-06-20T02:24:02.447Z,0
2018-06-20T02:25:10.508Z,0
2018-06-20T02:26:18.784Z,0
2018-06-20T02:27:26.813Z,0
2018-06-20T02:28:34.909Z,0
2018-06-20T02:29:42.968Z,0
2018-06-20T02:30:51.050Z,0
2018-06-20T02:31:59.098Z,0
2018-06-20T02:33:07.170Z,0
2018-06-20T02:34:15.251Z,0
2018-06-20T02:35:23.311Z,0
2018-06-20T02:36:31.391Z,0
2018-06-20T02:37:39.451Z,0
2018-06-20T02:38:47.513Z,0
2018-06-20T02:39:55.573Z,0
2018-06-20T02:41:03.647Z,0
2018-06-20T02:42:11.707Z,0
2018-06-20T02:43:19.771Z,0
2018-06-20T02:44:27.836Z,4
2018-06-20T02:45:35.898Z,4
2018-06-20T02:46:43.979Z,0
2018-06-20T02:47:52.048Z,4
2018-06-20T02:49:00.099Z,4
2018-06-20T02:50:08.177Z,4
2018-06-20T02:51:16.217Z,8
2018-06-20T02:52:24.302Z,4
2018-06-20T02:53:32.369Z,4
2018-06-20T02:54:40.437Z,8
2018-06-20T02:55:48.492Z,8
2018-06-20T02:56:56.537Z,8
2018-06-20T02:58:04.619Z,12
2018-06-20T02:59:12.684Z,12
2018-06-20T03:00:20.758Z,20
2018-06-20T03:01:28.823Z,20
2018-06-20T03:02:36.859Z,24
2018-06-20T03:03:44.962Z,28
2018-06-20T03:04:53.024Z,32
2018-06-20T03:06:01.085Z,36
2018-06-20T03:07:09.166Z,40
2018-06-20T03:08:17.214Z,52
2018-06-20T03:09:25.304Z,56
2018-06-20T03:10:33.351Z,64
2018-06-20T03:11:41.414Z,72
2018-06-20T03:12:49.485Z,84
2018-06-20T03:13:57.548Z,92
2018-06-20T03:15:05.612Z,108
2018-06-20T03:16:13.709Z,120
2018-06-20T03:17:21.754Z,132
2018-06-20T03:18:29.857Z,148
2018-06-20T03:19:37.887Z,164
2018-06-20T03:20:45.943Z,180
2018-06-20T03:21:54.014Z,200
2018-06-20T03:23:02.085Z,220
2018-06-20T03:24:10.159Z,236
2018-06-20T03:25:18.213Z,260
2018-06-20T03:26:26.260Z,284
2018-06-20T03:27:34.352Z,308
2018-06-20T03:28:42.403Z,332
2018-06-20T03:29:50.481Z,360
2018-06-20T03:30:58.549Z,388
2018-06-20T03:32:06.596Z,416
2018-06-20T03:33:14.685Z,444
2018-06-20T03:34:22.753Z,476
2018-06-20T03:35:30.811Z,508
2018-06-20T03:36:38.874Z,540
2018-06-20T03:37:46.918Z,576
2018-06-20T03:38:55.012Z,608
2018-06-20T03:40:03.070Z,636
2018-06-20T03:41:11.136Z,676
2018-06-20T03:42:19.210Z,708
2018-06-20T03:43:27.272Z,744
2018-06-20T03:44:35.330Z,780
2018-06-20T03:45:43.417Z,812
2018-06-20T03:46:51.474Z,848
2018-06-20T03:47:59.543Z,884
2018-06-20T03:49:07.608Z,916
2018-06-20T03:50:15.681Z,952
2018-06-20T03:51:23.735Z,984
2018-06-20T03:52:31.792Z,1020
2018-06-20T03:53:39.881Z,1056
2018-06-20T03:54:47.942Z,1088
2018-06-20T03:55:56.008Z,1124
2018-06-20T03:57:04.068Z,1156
2018-06-20T03:58:12.122Z,1192
2018-06-20T03:59:20.216Z,1224
2018-06-20T04:00:28.262Z,1260
2018-06-20T04:01:36.313Z,1292
2018-06-20T04:02:44.405Z,1324
2018-06-20T04:03:52.468Z,1360
2018-06-20T04:05:00.541Z,1392
2018-06-20T04:06:08.607Z,1424
2018-06-20T04:07:16.633Z,1456
2018-06-20T04:08:24.725Z,1488
2018-06-20T04:09:32.802Z,1520
2018-06-20T04:10:41.136Z,1552
2018-06-20T04:11:48.933Z,1580
2018-06-20T04:12:56.985Z,1608
2018-06-20T04:14:05.065Z,1632
2018-06-20T04:15:13.159Z,1656
2018-06-20T04:16:21.229Z,1688
2018-06-20T04:17:29.294Z,1712
2018-06-20T04:18:37.357Z,1740
2018-06-20T04:19:45.423Z,1768
2018-06-20T04:20:53.488Z,1792
2018-06-20T04:22:01.584Z,1824
2018-06-20T04:23:09.621Z,1852
2018-06-20T04:24:17.699Z,1880
2018-06-20T04:25:25.755Z,1904
2018-06-20T04:26:33.851Z,1932
2018-06-20T04:27:42.552Z,1952
2018-06-20T04:28:49.955Z,1976
2018-06-20T04:29:58.034Z,2000
2018-06-20T04:31:06.085Z,2024
2018-06-20T04:32:14.169Z,2048
2018-06-20T04:33:22.261Z,2068
2018-06-20T04:34:30.357Z,2092
2018-06-20T04:35:38.374Z,2116
2018-06-20T04:36:46.408Z,2136
2018-06-20T04:37:54.466Z,2156
2018-06-20T04:39:02.557Z,2180
2018-06-20T04:40:10.625Z,2212
2018-06-20T04:41:18.692Z,2244
2018-06-20T04:42:26.732Z,2256
2018-06-20T04:43:34.825Z,2276
2018-06-20T04:44:43.437Z,2292
2018-06-20T04:45:51.005Z,2320
2018-06-20T04:46:59.025Z,2340
2018-06-20T04:48:07.079Z,2360
2018-06-20T04:49:15.157Z,2384
2018-06-20T04:50:23.223Z,2404
2018-06-20T04:51:31.484Z,2424
2018-06-20T04:52:39.553Z,2440
2018-06-20T04:53:47.410Z,2468
2018-06-20T04:54:55.486Z,2488
2018-06-20T04:56:03.557Z,2504
2018-06-20T04:57:11.615Z,2528
2018-06-20T04:58:21.441Z,2544
2018-06-20T04:59:27.751Z,2564
2018-06-20T05:00:35.825Z,2584
2018-06-20T05:01:43.916Z,2600
2018-06-20T05:02:51.966Z,2624
2018-06-20T05:04:00.026Z,2780
2018-06-20T05:05:08.087Z,2900
2018-06-20T05:06:16.145Z,3316
2018-06-20T05:07:24.427Z,3964
2018-06-20T05:08:32.301Z,3292
2018-06-20T05:09:40.363Z,3140
2018-06-20T05:10:48.437Z,2812
2018-06-20T05:11:56.462Z,2760
2018-06-20T05:13:04.873Z,2772
2018-06-20T05:14:12.645Z,2816
2018-06-20T05:15:20.709Z,2756
2018-06-20T05:16:28.776Z,2768
2018-06-20T05:17:36.827Z,2776
2018-06-20T05:18:45.620Z,2780
2018-06-20T05:19:52.976Z,2796
2018-06-20T05:21:01.051Z,2808
2018-06-20T05:22:09.105Z,2828
2018-06-20T05:23:17.179Z,2836
2018-06-20T05:24:25.258Z,2848
2018-06-20T05:25:33.309Z,2872
2018-06-20T05:26:47.838Z,2876
2018-06-20T05:27:55.897Z,2904
2018-06-20T05:29:03.974Z,2908
2018-06-20T05:31:32.123Z,2960
2018-06-20T05:32:39.069Z,2960
2018-06-20T05:33:47.118Z,2976
2018-06-20T05:34:55.208Z,2984
2018-06-20T05:36:03.275Z,3004
2018-06-20T05:37:11.344Z,3032
2018-06-20T05:38:19.406Z,3120
2018-06-20T05:39:27.476Z,3404
2018-06-20T05:40:35.538Z,3068
2018-06-20T05:41:43.659Z,3068
2018-06-20T05:42:51.704Z,3084
2018-06-20T05:43:59.733Z,3100
2018-06-20T05:45:07.825Z,3112
2018-06-20T05:46:15.880Z,3120
2018-06-20T05:47:23.964Z,3136
2018-06-20T05:48:40.929Z,3152
2018-06-20T05:49:40.096Z,3160
2018-06-20T05:50:48.173Z,3176
2018-06-20T05:51:56.206Z,3180
2018-06-20T05:53:04.323Z,3208
2018-06-20T05:54:12.351Z,3216
2018-06-20T05:55:20.415Z,3220
2018-06-20T05:56:28.495Z,3220
2018-06-20T05:57:36.535Z,3236
2018-06-20T05:58:44.622Z,3260
2018-06-20T05:59:52.702Z,3268
2018-06-20T06:01:01.962Z,3256
2018-06-20T06:02:10.046Z,3268
2018-06-20T06:03:18.131Z,3292
2018-06-20T06:04:26.157Z,3292
2018-06-20T06:05:34.269Z,3276
2018-06-20T06:06:42.308Z,3304
2018-06-20T06:07:50.378Z,3332
2018-06-20T06:08:58.438Z,3312
2018-06-20T06:10:06.495Z,3348
2018-06-20T06:11:14.568Z,3348
2018-06-20T06:12:22.648Z,3356
2018-06-20T06:13:30.704Z,3380
2018-06-20T06:14:38.783Z,3372
2018-06-20T06:15:46.828Z,3396
2018-06-20T06:16:55.048Z,3408
2018-06-20T06:18:02.988Z,3404
2018-06-20T06:19:14.485Z,3412
2018-06-20T06:20:22.570Z,3396
2018-06-20T06:21:30.615Z,3428
2018-06-20T06:22:38.676Z,3452
2018-06-20T06:23:46.734Z,3448
2018-06-20T06:24:54.835Z,3448
2018-06-20T06:26:02.907Z,3476
2018-06-20T06:27:10.971Z,3496
2018-06-20T06:28:19.028Z,3492
2018-06-20T06:29:27.104Z,3512
2018-06-20T06:30:35.230Z,3508
2018-06-20T06:32:59.778Z,3512
2018-06-20T06:34:07.857Z,3556
2018-06-20T06:35:15.903Z,3520
2018-06-20T06:36:23.977Z,3524
2018-06-20T06:37:32.060Z,3564
2018-06-20T06:38:40.122Z,3608
2018-06-20T06:39:50.815Z,3620
2018-06-20T06:40:58.872Z,3624
2018-06-20T06:42:06.917Z,3640
2018-06-20T06:43:17.229Z,3668
2018-06-20T06:44:25.289Z,3688
2018-06-20T06:45:33.358Z,3720
2018-06-20T06:46:41.425Z,3768
2018-06-20T06:47:49.497Z,3808
2018-06-20T06:48:57.561Z,3812
2018-06-20T06:50:10.950Z,3844
2018-06-20T06:51:18.959Z,3868
2018-06-20T06:52:27.026Z,3928
2018-06-20T06:53:35.083Z,3968
2018-06-20T06:54:46.194Z,4024
2018-06-20T06:55:52.211Z,4076
2018-06-20T06:57:00.280Z,4204
2018-06-20T06:58:08.367Z,9416
2018-06-20T06:59:16.400Z,23648
2018-06-20T07:00:26.682Z,16216
2018-06-20T07:01:33.578Z,18816
2018-06-20T07:02:41.744Z,28640
2018-06-20T07:03:51.123Z,16572
2018-06-20T07:05:00.874Z,23904
2018-06-20T07:06:09.877Z,33088
2018-06-20T07:07:17.017Z,26880
2018-06-20T07:08:25.999Z,46208
2018-06-20T07:09:32.047Z,20576
2018-06-20T07:10:40.128Z,40800
2018-06-20T07:11:48.204Z,28672
2018-06-20T07:12:57.469Z,26688
2018-06-20T07:14:05.555Z,34784
2018-06-20T07:15:13.633Z,40096
2018-06-20T07:16:21.707Z,60768
2018-06-20T07:17:29.777Z,79904
2018-06-20T07:18:39.656Z,97600
2018-06-20T07:19:47.761Z,98912
2018-06-20T07:20:55.805Z,61120
2018-06-20T07:22:03.876Z,84416
2018-06-20T07:23:24.712Z,85952
2018-06-20T07:24:20.704Z,59200
2018-06-20T07:25:30.328Z,48096
2018-06-20T07:26:38.400Z,52608
2018-06-20T07:27:46.436Z,53664
2018-06-20T07:28:54.556Z,57888
2018-06-20T07:30:02.743Z,67136
2018-06-20T07:31:10.709Z,68320
2018-06-20T07:32:18.791Z,64896
2018-06-20T07:33:27.460Z,58272
2018-06-20T07:34:35.557Z,56128
2018-06-20T07:35:43.675Z,60576
2018-06-20T07:36:51.704Z,63040
2018-06-20T07:37:59.785Z,62592
2018-06-20T07:39:10.486Z,68064
2018-06-20T07:40:18.566Z,67104
2018-06-20T07:41:26.635Z,64096
2018-06-20T07:42:34.721Z,66016
2018-06-20T07:43:42.799Z,67328
2018-06-20T07:44:50.879Z,66624
2018-06-20T07:45:58.969Z,66176
2018-06-20T07:47:07.033Z,67232
2018-06-20T07:48:15.136Z,72864
2018-06-20T07:49:23.199Z,74912
2018-06-20T07:50:31.284Z,76320
2018-06-20T07:51:39.372Z,77184
2018-06-20T07:52:47.452Z,76192
2018-06-20T07:53:55.536Z,72032
2018-06-20T07:55:03.620Z,76704
2018-06-20T07:56:11.700Z,78912
2018-06-20T07:57:19.787Z,70208
2018-06-20T07:58:27.866Z,74944
2018-06-20T07:59:35.946Z,79744
2018-06-20T08:00:44.116Z,80352
2018-06-20T08:01:52.114Z,80960
2018-06-20T08:03:00.196Z,83008
2018-06-20T08:04:08.284Z,83968
2018-06-20T08:05:16.330Z,84672
2018-06-20T08:06:24.583Z,84992
2018-06-20T08:07:32.540Z,81568
2018-06-20T08:08:40.616Z,83424
2018-06-20T08:09:48.715Z,91104
2018-06-20T08:10:56.765Z,88992
2018-06-20T08:12:04.887Z,86592
2018-06-20T08:13:12.967Z,85984
2018-06-20T08:14:21.040Z,83520
2018-06-20T08:15:29.142Z,86720
2018-06-20T08:16:37.212Z,89504
2018-06-20T08:17:45.295Z,89120
2018-06-20T08:18:53.443Z,87648
2018-06-20T08:20:01.466Z,88672
2018-06-20T08:21:09.549Z,90048
2018-06-20T08:22:17.629Z,91712
2018-06-20T08:23:25.721Z,93344
2018-06-20T08:24:33.814Z,88992
2018-06-20T08:25:41.922Z,85376
2018-06-20T08:26:49.982Z,93568
2018-06-20T08:27:58.078Z,93280
2018-06-20T08:29:06.137Z,92256
2018-06-20T08:30:14.242Z,94784
2018-06-20T08:31:22.317Z,98752
2018-06-20T08:32:30.401Z,97376
2018-06-20T08:33:38.489Z,97856
2018-06-20T08:34:46.550Z,96704
2018-06-20T08:35:54.672Z,97664
2018-06-20T08:37:02.747Z,103872
2018-06-20T08:38:10.832Z,98560
2018-06-20T08:39:18.915Z,91296
2018-06-20T08:40:26.997Z,88992
2018-06-20T08:41:35.165Z,89600
2018-06-20T08:42:43.184Z,94720
2018-06-20T08:43:51.273Z,85984
2018-06-20T08:44:59.361Z,89920
2018-06-20T08:46:07.460Z,93440
2018-06-20T08:47:15.526Z,92864
2018-06-20T08:48:23.597Z,95552
2018-06-20T08:49:31.699Z,97856
2018-06-20T08:50:39.787Z,86656
2018-06-20T08:51:47.874Z,91488
2018-06-20T08:52:55.986Z,78528
2018-06-20T08:54:04.038Z,89920
2018-06-20T08:55:12.124Z,79680
2018-06-20T08:56:20.223Z,91840
2018-06-20T08:57:28.317Z,98016
2018-06-20T08:58:36.365Z,94752
2018-06-20T08:59:44.477Z,92544
2018-06-20T09:00:52.562Z,96896
2018-06-20T09:02:00.655Z,97088
2018-06-20T09:03:08.739Z,97024
2018-06-20T09:04:16.801Z,101088
2018-06-20T09:05:24.918Z,100608
2018-06-20T09:06:33.005Z,98336
2018-06-20T09:07:41.083Z,103200
2018-06-20T09:08:49.175Z,102848
2018-06-20T09:09:57.251Z,102496
2018-06-20T09:11:05.339Z,103520
2018-06-20T09:12:13.436Z,104960
2018-06-20T09:13:21.512Z,103680
2018-06-20T09:14:29.601Z,99936
2018-06-20T09:15:37.690Z,96704
2018-06-20T09:16:45.773Z,100704
2018-06-20T09:17:53.870Z,103904
2018-06-20T09:19:01.939Z,98848
2018-06-20T09:20:10.022Z,96416
2018-06-20T09:21:18.125Z,98720
2018-06-20T09:22:26.208Z,93248
2018-06-20T09:23:34.298Z,105216
2018-06-20T09:24:42.370Z,104928
2018-06-20T09:25:50.474Z,107552
2018-06-20T09:26:58.546Z,116224
2018-06-20T09:28:06.610Z,109984
2018-06-20T09:29:14.727Z,64768
2018-06-20T09:30:22.817Z,11384
2018-06-20T09:31:30.889Z,4628
2018-06-20T09:32:38.984Z,4524
2018-06-20T09:33:47.057Z,4400
2018-06-20T09:34:55.139Z,4340
2018-06-20T09:36:03.244Z,4312
2018-06-20T09:37:11.297Z,4300
2018-06-20T09:38:19.395Z,4248
2018-06-20T09:39:27.473Z,4164
2018-06-20T09:40:35.556Z,4156
2018-06-20T09:41:43.646Z,4144
2018-06-20T09:42:51.702Z,4116
2018-06-20T09:43:59.805Z,4100
2018-06-20T09:45:07.872Z,4116
2018-06-20T09:46:15.949Z,4132
2018-06-20T09:47:24.029Z,4204
2018-06-20T09:48:32.112Z,4284
2018-06-20T09:49:40.196Z,4296
2018-06-20T09:50:48.263Z,4300
2018-06-20T09:51:56.328Z,4288
2018-06-20T09:53:04.438Z,4212
2018-06-20T09:54:12.527Z,4164
2018-06-20T09:55:20.597Z,4140
2018-06-20T09:56:28.663Z,4116
2018-06-20T09:57:36.720Z,4104
2018-06-20T09:58:44.830Z,4088
2018-06-20T09:59:52.917Z,4044
2018-06-20T10:01:00.963Z,4024
2018-06-20T10:02:09.056Z,4028
2018-06-20T10:03:17.097Z,4076
2018-06-20T10:04:25.209Z,4148
2018-06-20T10:05:33.285Z,4176
2018-06-20T10:06:41.356Z,4232
2018-06-20T10:07:49.428Z,4232
2018-06-20T10:08:57.502Z,4200
2018-06-20T10:10:05.586Z,4152
2018-06-20T10:11:13.657Z,4128
2018-06-20T10:12:21.752Z,4120
2018-06-20T10:13:29.800Z,4116
2018-06-20T10:14:37.891Z,4084
2018-06-20T10:15:45.949Z,4060
2018-06-20T10:16:54.088Z,4056
2018-06-20T10:18:02.119Z,4068
2018-06-20T10:19:10.192Z,4072
2018-06-20T10:20:18.310Z,4080
2018-06-20T10:21:26.369Z,4104
2018-06-20T10:22:34.409Z,4088
2018-06-20T10:23:42.476Z,4068
2018-06-20T10:24:50.559Z,4104
2018-06-20T10:25:58.649Z,4128
2018-06-20T10:27:06.692Z,4176
2018-06-20T10:28:14.796Z,4168
2018-06-20T10:29:22.873Z,4160
2018-06-20T10:30:30.944Z,4152
2018-06-20T10:31:39.019Z,4132
2018-06-20T10:32:47.075Z,4116
2018-06-20T10:33:55.178Z,4104
2018-06-20T10:35:03.231Z,4064
2018-06-20T10:36:11.311Z,4060
2018-06-20T10:37:19.395Z,4040
2018-06-20T10:38:27.476Z,4040
2018-06-20T10:39:35.546Z,4044
2018-06-20T10:40:43.620Z,4072
2018-06-20T10:41:51.687Z,4096
2018-06-20T10:42:59.785Z,4060
2018-06-20T10:44:07.846Z,4040
2018-06-20T10:45:15.922Z,4032
2018-06-20T10:46:24.055Z,4024
2018-06-20T10:47:32.069Z,3984
2018-06-20T10:48:40.131Z,3964
2018-06-20T10:49:48.217Z,4000
2018-06-20T10:50:56.262Z,4024
2018-06-20T10:52:04.373Z,4016
2018-06-20T10:53:12.452Z,3996
2018-06-20T10:54:20.521Z,3948
2018-06-20T10:55:28.602Z,3920
2018-06-20T10:56:36.644Z,3880
2018-06-20T10:57:44.743Z,3864
2018-06-20T10:58:52.814Z,3832
2018-06-20T11:00:00.899Z,3812
2018-06-20T11:01:08.991Z,3808
2018-06-20T11:02:17.034Z,3804
2018-06-20T11:03:25.112Z,3824
2018-06-20T11:04:33.177Z,3824
2018-06-20T11:05:41.272Z,3840
2018-06-20T11:06:49.375Z,3852
2018-06-20T11:07:57.404Z,3860
2018-06-20T11:09:05.491Z,3852
2018-06-20T11:10:13.553Z,3844
2018-06-20T11:11:21.637Z,3824
2018-06-20T11:12:29.719Z,3812
2018-06-20T11:13:37.783Z,3780
2018-06-20T11:14:45.866Z,3760
2018-06-20T11:15:53.931Z,3784
2018-06-20T11:17:02.006Z,3832
2018-06-20T11:18:10.084Z,3856
2018-06-20T11:19:18.164Z,3844
2018-06-20T11:20:26.205Z,3824
2018-06-20T11:21:34.304Z,3796
2018-06-20T11:22:42.374Z,3756
2018-06-20T11:23:50.444Z,3724
2018-06-20T11:24:58.521Z,3716
2018-06-20T11:26:06.579Z,3712
2018-06-20T11:27:14.688Z,3716
2018-06-20T11:28:22.749Z,3732
2018-06-20T11:29:30.839Z,3720
2018-06-20T11:30:38.910Z,3704
2018-06-20T11:31:46.978Z,3712
2018-06-20T11:32:55.048Z,3700
2018-06-20T11:34:03.124Z,3660
2018-06-20T11:35:11.196Z,3620
2018-06-20T11:36:19.272Z,3624
2018-06-20T11:37:27.353Z,3632
2018-06-20T11:38:35.417Z,3616
2018-06-20T11:39:43.488Z,3600
2018-06-20T11:40:51.569Z,3580
2018-06-20T11:41:59.649Z,3572
2018-06-20T11:43:07.742Z,3568
2018-06-20T11:44:15.791Z,3576
2018-06-20T11:45:23.871Z,3600
2018-06-20T11:46:31.945Z,3612
2018-06-20T11:47:40.024Z,3620
2018-06-20T11:48:48.098Z,3620
2018-06-20T11:49:56.206Z,3616
2018-06-20T11:51:04.250Z,3608
2018-06-20T11:52:12.313Z,3604
2018-06-20T11:53:20.397Z,3584
2018-06-20T11:54:28.471Z,3580
2018-06-20T11:55:36.516Z,3568
2018-06-20T11:56:44.620Z,3560
2018-06-20T11:57:52.738Z,3536
2018-06-20T11:59:00.787Z,3508
2018-06-20T12:00:08.854Z,3480
2018-06-20T12:01:16.909Z,3464
2018-06-20T12:02:25.002Z,3460
2018-06-20T12:03:33.083Z,3448
2018-06-20T12:04:41.156Z,3428
2018-06-20T12:05:49.219Z,3408
2018-06-20T12:06:57.306Z,3404
2018-06-20T12:08:05.364Z,3416
2018-06-20T12:09:13.445Z,3428
2018-06-20T12:10:21.516Z,3428
2018-06-20T12:11:29.590Z,3400
2018-06-20T12:12:37.667Z,3372
2018-06-20T12:13:45.747Z,3348
2018-06-20T12:14:53.812Z,3324
2018-06-20T12:16:01.891Z,3304
2018-06-20T12:17:09.964Z,3280
2018-06-20T12:18:18.046Z,3252
2018-06-20T12:19:26.108Z,3224
2018-06-20T12:20:34.191Z,3216
2018-06-20T12:21:42.267Z,3220
2018-06-20T12:22:50.328Z,3220
2018-06-20T12:23:58.420Z,3224
2018-06-20T12:25:06.456Z,3240
2018-06-20T12:26:14.566Z,3236
2018-06-20T12:27:22.644Z,3228
2018-06-20T12:28:30.712Z,3216
2018-06-20T12:29:38.785Z,3204
2018-06-20T12:30:46.842Z,3184
2018-06-20T12:31:54.940Z,3164
2018-06-20T12:33:03.017Z,3176
2018-06-20T12:34:11.089Z,3200
2018-06-20T12:35:19.166Z,3224
2018-06-20T12:36:27.252Z,3236
2018-06-20T12:37:35.313Z,3252
2018-06-20T12:38:43.391Z,3260
2018-06-20T12:39:51.471Z,3244
2018-06-20T12:40:59.581Z,3224
2018-06-20T12:42:07.643Z,3200
2018-06-20T12:43:15.695Z,3184
2018-06-20T12:44:23.762Z,3176
2018-06-20T12:45:31.857Z,3164
2018-06-20T12:46:39.906Z,3164
2018-06-20T12:47:48.013Z,3160
2018-06-20T12:48:56.051Z,3172
2018-06-20T12:50:04.142Z,3208
2018-06-20T12:51:12.217Z,3260
2018-06-20T12:52:20.290Z,3292
2018-06-20T12:53:28.357Z,3300
2018-06-20T12:54:36.423Z,3300
2018-06-20T12:55:44.512Z,3284
2018-06-20T12:56:53.658Z,3252
2018-06-20T12:58:00.673Z,3236
2018-06-20T12:59:08.727Z,3232
2018-06-20T13:00:16.776Z,3208
2018-06-20T13:01:24.897Z,3188
2018-06-20T13:02:32.956Z,3156
2018-06-20T13:03:41.036Z,3124
2018-06-20T13:04:49.107Z,3092
2018-06-20T13:05:57.177Z,3068
2018-06-20T13:07:05.264Z,3048
2018-06-20T13:08:13.335Z,3036
2018-06-20T13:09:21.390Z,3028
2018-06-20T13:10:29.488Z,3024
2018-06-20T13:11:37.555Z,3016
2018-06-20T13:12:45.627Z,3016
2018-06-20T13:13:53.713Z,3020
2018-06-20T13:15:01.787Z,3024
2018-06-20T13:16:09.846Z,3024
2018-06-20T13:17:17.950Z,3020
2018-06-20T13:18:26.001Z,3028
2018-06-20T13:19:34.070Z,3036
2018-06-20T13:20:42.149Z,3036
2018-06-20T13:21:50.224Z,3028
2018-06-20T13:22:58.306Z,3028
2018-06-20T13:24:06.349Z,3020
2018-06-20T13:25:14.451Z,3016
2018-06-20T13:26:22.529Z,3008
2018-06-20T13:27:30.597Z,3000
2018-06-20T13:28:38.674Z,3000
2018-06-20T13:29:46.719Z,2996
2018-06-20T13:30:54.809Z,2992
2018-06-20T13:32:02.889Z,2976
2018-06-20T13:33:10.960Z,2964
2018-06-20T13:34:19.040Z,2976
2018-06-20T13:35:27.115Z,2980
2018-06-20T13:36:35.195Z,2972
2018-06-20T13:37:43.275Z,2968
2018-06-20T13:38:51.334Z,2964
2018-06-20T13:39:59.421Z,2968
2018-06-20T13:41:07.508Z,2972
2018-06-20T13:42:15.564Z,2964
2018-06-20T13:43:23.640Z,2960
2018-06-20T13:44:31.714Z,2960
2018-06-20T13:45:39.784Z,2968
2018-06-20T13:46:47.861Z,2980
2018-06-20T13:47:55.938Z,2992
2018-06-20T13:49:04.004Z,2992
2018-06-20T13:50:12.085Z,2988
2018-06-20T13:51:20.159Z,2980
2018-06-20T13:52:28.245Z,2972
2018-06-20T13:53:36.280Z,2956
2018-06-20T13:54:44.382Z,2944
2018-06-20T13:55:52.466Z,2932
2018-06-20T13:57:00.517Z,2920
2018-06-20T13:58:08.608Z,2920
2018-06-20T13:59:16.707Z,2916
2018-06-20T14:00:24.771Z,2920
2018-06-20T14:01:32.837Z,2916
2018-06-20T14:02:40.913Z,2912
2018-06-20T14:03:48.965Z,2912
2018-06-20T14:04:57.057Z,2916
2018-06-20T14:06:05.128Z,2916
2018-06-20T14:07:13.209Z,2908
2018-06-20T14:08:21.279Z,2904
2018-06-20T14:09:29.342Z,2900
2018-06-20T14:10:37.424Z,2892
2018-06-20T14:11:45.586Z,2888
2018-06-20T14:12:53.598Z,2884
2018-06-20T14:14:01.648Z,2896
2018-06-20T14:15:09.726Z,2900
2018-06-20T14:16:17.801Z,2904
2018-06-20T14:17:25.871Z,2908
2018-06-20T14:18:33.956Z,2912
2018-06-20T14:19:42.021Z,2912
2018-06-20T14:20:50.100Z,2916
2018-06-20T14:21:58.171Z,2916
2018-06-20T14:23:06.213Z,2916
2018-06-20T14:24:14.323Z,2912
2018-06-20T14:25:22.395Z,2908
2018-06-20T14:26:30.463Z,2908
2018-06-20T14:27:38.545Z,2912
2018-06-20T14:28:46.588Z,2912
2018-06-20T14:29:54.683Z,2908
2018-06-20T14:31:02.770Z,2912
2018-06-20T14:32:10.848Z,2904
2018-06-20T14:33:18.917Z,2916
2018-06-20T14:34:26.957Z,2920
2018-06-20T14:35:35.061Z,2920
2018-06-20T14:36:43.132Z,2920
2018-06-20T14:37:51.211Z,2920
2018-06-20T14:38:59.365Z,2920
2018-06-20T14:40:07.374Z,2928
2018-06-20T14:41:15.436Z,2928
2018-06-20T14:42:23.512Z,2924
2018-06-20T14:43:31.576Z,2920
2018-06-20T14:44:39.668Z,2920
2018-06-20T14:45:47.741Z,2912
2018-06-20T14:46:55.808Z,2912
2018-06-20T14:48:03.877Z,2916
2018-06-20T14:49:11.954Z,2916
2018-06-20T14:50:20.034Z,2912
2018-06-20T14:51:28.128Z,2908
2018-06-20T14:52:36.167Z,2904
2018-06-20T14:53:44.253Z,2888
2018-06-20T14:54:52.326Z,2876
2018-06-20T14:56:00.410Z,2876
2018-06-20T14:57:08.482Z,2876
2018-06-20T14:58:16.529Z,2872
2018-06-20T14:59:24.634Z,2868
2018-06-20T15:00:32.706Z,2868
2018-06-20T15:01:40.782Z,2864
2018-06-20T15:02:48.846Z,2860
2018-06-20T15:03:56.897Z,2860
2018-06-20T15:05:05.005Z,2864
2018-06-20T15:06:13.067Z,2868
2018-06-20T15:07:21.159Z,2872
2018-06-20T15:08:29.232Z,2872
2018-06-20T15:09:37.299Z,2876
2018-06-20T15:10:45.394Z,2872
2018-06-20T15:11:53.433Z,2868
2018-06-20T15:13:01.522Z,2860
2018-06-20T15:14:09.583Z,2860
2018-06-20T15:15:17.662Z,2856
2018-06-20T15:16:25.746Z,2856
2018-06-20T15:17:33.818Z,2860
2018-06-20T15:18:41.894Z,2860
2018-06-20T15:19:49.940Z,2860
2018-06-20T15:20:58.037Z,2860
2018-06-20T15:22:06.111Z,2852
2018-06-20T15:23:14.222Z,2856
2018-06-20T15:24:22.280Z,2856